Los Alamitos Army Air Field, CA

7:42 AM PDT on August 27, 2014 (GMT -0700)
Los Alamitos Army Air Field | Change Station
CLOSE
Current Station
Airport
Location: Los Alamitos,
Elevation: 36 ft
Nearby Weather Stations
Active Advisory: High Surf Advisory Active Notice: Local Storm Report

Elev 36 ft 33.79 °N, 118.05 °W | Updated 44 minutes ago

Clear
Clear
65 °F
Feels Like 65 °F
N
2
Wind Variable Wind from NW

Today
High -- | Low -- °F
--% Chance of Precip.
Yesterday
High -- | Low -- °F
Precip. -- in
6:22 AM 7:24 PM
Waxing Crescent, 4% visible
Pressure 30.03 in
Visibility 7.0 miles
Clouds Clear
Dew Point 62 °F
Humidity 92%
Rainfall 0.00 in
Snow Depth Not available.
UV 0 out of 12
Pollen 7.50 out of 12
Ozone Good
PM2.5 Moderate
Flu Activity Not available.
METAR KSLI 271358Z 32002KT 7SM CLR 18/17 A3002 RMK AO2A SLP169 T01810168

More Conditions Fewer Conditions

Pressure 30.03 in
Visibility 7.0 miles
Clouds Clear
Dew Point 62 °F
Humidity 92%
Rainfall 0.00 in
Snow Depth Not available.
UV 0 out of 12
Pollen 7.50 out of 12
Ozone Good
PM2.5 Moderate
Flu Activity Not available.
METAR KSLI 271358Z 32002KT 7SM CLR 18/17 A3002 RMK AO2A SLP169 T01810168

More Conditions Fewer Conditions

10-Day Weather Forecast

Almanac

Astronomy

Aug. 27, 2014 Rise Set
Actual Time 6:22 AM PDT 7:24 PM PDT
Civil Twilight 5:56 AM PDT 7:49 PM PDT
Nautical Twilight 5:26 AM PDT 8:20 PM PDT
Astronomical Twilight 4:54 AM PDT 8:51 PM PDT
Moon 8:15 AM PDT 8:27 PM PDT
Length of Visible Light 13h 52m
Length of Day
13h 01m
Tomorrow will be 1m 58s shorter.
Waxing Crescent, 4% of the Moon is Illuminated
Today
Waxing Crescent
Sep 2
First Quarter
Sep 8
Full
Sep 15
Last Quarter
Sep 24
New

Today's Extremes

State Highs State Lows

Community

WunderPhotos

Upload Photos

1,747,701 photos uploaded!

Nearby

Air Quality

  Air Quality AQ Index Pollutant
Yesterday Good
PM10
Yesterday Good
OZONE
Current Moderate
PM2.5
Current Good
OZONE
Wednesday Good
PM10
Wednesday Good
OZONE
Wednesday Good
CO
Wednesday Good
NO2

Snow Depth

Station Depth Elevation
Leavitt Lake 0 in 9400 ft
Leavitt Meadows 1 in 7200 ft
Sonora Pass 0 in 8800 ft
Summit Meadow 2 in 9122 ft
Ebbetts Pass 0 in 8700 ft

Earthquake Activity

City Distance Mag. Time & Date
San Fernando, California 37 miles 2.5 4:57 AM PDT
2014-08-26
San Pedro, California 14 miles 3.2 7:50 PM PDT
2014-08-24
Minimum magnitude displayed is 2.5.

Coastal Water Temperatures

Place Temperature
Santa Monica Pier 68.0 °F
Los Angeles, CA 66.9 °F
La Jolla, CA 69.1 °F

Nearby Weather Stations